sensor_id;sensor_type;location;lat;lon;timestamp;pressure;altitude;pressure_sealevel;temperature;humidity
78623;BME280;67943;54.412;9.502;2024-01-30T00:04:15;102547.56;;;8.42;86.71
78623;BME280;67943;54.412;9.502;2024-01-30T00:09:17;102555.44;;;8.42;87.08
78623;BME280;67943;54.412;9.502;2024-01-30T00:14:19;102555.38;;;8.36;86.92
78623;BME280;67943;54.412;9.502;2024-01-30T00:19:22;102549.25;;;8.36;87.45
78623;BME280;67943;54.412;9.502;2024-01-30T00:24:24;102539.69;;;8.41;87.14
78623;BME280;67943;54.412;9.502;2024-01-30T00:29:25;102538.78;;;8.39;87.59
78623;BME280;67943;54.412;9.502;2024-01-30T00:34:31;102542.34;;;8.44;86.79
78623;BME280;67943;54.412;9.502;2024-01-30T00:39:33;102532.75;;;8.44;86.71
78623;BME280;67943;54.412;9.502;2024-01-30T00:44:35;102546.69;;;8.42;87.44
78623;BME280;67943;54.412;9.502;2024-01-30T00:49:38;102548.53;;;8.48;87.05
78623;BME280;67943;54.412;9.502;2024-01-30T00:54:40;102538.97;;;8.51;86.76
78623;BME280;67943;54.412;9.502;2024-01-30T00:59:42;102533.69;;;8.50;86.09
78623;BME280;67943;54.412;9.502;2024-01-30T01:04:45;102534.59;;;8.52;86.14
78623;BME280;67943;54.412;9.502;2024-01-30T01:09:46;102533.72;;;8.51;86.11
78623;BME280;67943;54.412;9.502;2024-01-30T01:14:48;102533.78;;;8.54;86.15
78623;BME280;67943;54.412;9.502;2024-01-30T01:19:50;102526.66;;;8.47;86.53
78623;BME280;67943;54.412;9.502;2024-01-30T01:24:52;102530.16;;;8.46;86.42
78623;BME280;67943;54.412;9.502;2024-01-30T01:29:54;102520.50;;;8.45;86.22
78623;BME280;67943;54.412;9.502;2024-01-30T01:34:57;102519.63;;;8.44;86.20
78623;BME280;67943;54.412;9.502;2024-01-30T01:39:58;102516.19;;;8.47;86.14
78623;BME280;67943;54.412;9.502;2024-01-30T01:45:00;102514.41;;;8.46;85.66
78623;BME280;67943;54.412;9.502;2024-01-30T01:50:03;102517.13;;;8.52;85.30
78623;BME280;67943;54.412;9.502;2024-01-30T01:55:05;102506.59;;;8.49;85.42
78623;BME280;67943;54.412;9.502;2024-01-30T02:00:08;102500.47;;;8.50;84.06
78623;BME280;67943;54.412;9.502;2024-01-30T02:05:11;102496.84;;;8.42;85.03
78623;BME280;67943;54.412;9.502;2024-01-30T02:10:13;102496.78;;;8.36;84.46
78623;BME280;67943;54.412;9.502;2024-01-30T02:15:15;102481.78;;;8.29;84.66
78623;BME280;67943;54.412;9.502;2024-01-30T02:20:18;102473.03;;;8.28;85.08
78623;BME280;67943;54.412;9.502;2024-01-30T02:25:30;102456.34;;;8.23;85.21
78623;BME280;67943;54.412;9.502;2024-01-30T02:30:32;102461.50;;;8.17;84.94
78623;BME280;67943;54.412;9.502;2024-01-30T02:35:33;102457.91;;;8.10;84.77
78623;BME280;67943;54.412;9.502;2024-01-30T02:40:36;102445.50;;;7.99;84.98
78623;BME280;67943;54.412;9.502;2024-01-30T02:45:38;102443.72;;;7.96;84.74
78623;BME280;67943;54.412;9.502;2024-01-30T02:50:39;102441.03;;;7.93;84.88
78623;BME280;67943;54.412;9.502;2024-01-30T02:55:42;102441.78;;;7.86;84.30
78623;BME280;67943;54.412;9.502;2024-01-30T03:00:44;102440.84;;;7.81;84.55
78623;BME280;67943;54.412;9.502;2024-01-30T03:05:45;102436.38;;;7.74;84.29
78623;BME280;67943;54.412;9.502;2024-01-30T03:10:48;102432.75;;;7.66;84.57
78623;BME280;67943;54.412;9.502;2024-01-30T03:15:49;102437.91;;;7.61;84.37
78623;BME280;67943;54.412;9.502;2024-01-30T03:20:51;102437.03;;;7.61;84.22
78623;BME280;67943;54.412;9.502;2024-01-30T03:25:54;102429.97;;;7.58;84.59
78623;BME280;67943;54.412;9.502;2024-01-30T03:30:55;102426.47;;;7.58;83.68
78623;BME280;67943;54.412;9.502;2024-01-30T03:35:57;102420.16;;;7.43;84.25
78623;BME280;67943;54.412;9.502;2024-01-30T03:41:00;102421.63;;;7.29;83.90
78623;BME280;67943;54.412;9.502;2024-01-30T03:46:02;102420.63;;;7.21;83.87
78623;BME280;67943;54.412;9.502;2024-01-30T03:51:04;102405.72;;;7.17;84.21
78623;BME280;67943;54.412;9.502;2024-01-30T03:56:07;102415.13;;;7.07;84.65
78623;BME280;67943;54.412;9.502;2024-01-30T04:01:13;102411.50;;;7.01;84.79
78623;BME280;67943;54.412;9.502;2024-01-30T04:06:14;102402.84;;;7.03;85.05
78623;BME280;67943;54.412;9.502;2024-01-30T04:11:19;102399.97;;;6.90;84.74
78623;BME280;67943;54.412;9.502;2024-01-30T04:16:21;102402.63;;;6.91;84.80
78623;BME280;67943;54.412;9.502;2024-01-30T04:21:23;102403.38;;;6.86;84.88
78623;BME280;67943;54.412;9.502;2024-01-30T04:26:26;102391.19;;;6.86;84.79
78623;BME280;67943;54.412;9.502;2024-01-30T04:31:27;102392.88;;;6.84;84.74
78623;BME280;67943;54.412;9.502;2024-01-30T04:36:28;102385.59;;;6.69;85.13
78623;BME280;67943;54.412;9.502;2024-01-30T04:41:31;102394.38;;;6.71;85.03
78623;BME280;67943;54.412;9.502;2024-01-30T04:46:34;102390.00;;;6.70;84.95
78623;BME280;67943;54.412;9.502;2024-01-30T04:51:35;102383.78;;;6.64;84.75
78623;BME280;67943;54.412;9.502;2024-01-30T04:56:38;102387.16;;;6.58;85.02
78623;BME280;67943;54.412;9.502;2024-01-30T05:01:40;102385.25;;;6.51;85.18
78623;BME280;67943;54.412;9.502;2024-01-30T05:06:41;102393.09;;;6.51;85.06
78623;BME280;67943;54.412;9.502;2024-01-30T05:11:44;102392.19;;;6.49;85.01
78623;BME280;67943;54.412;9.502;2024-01-30T05:16:46;102391.31;;;6.49;85.17
78623;BME280;67943;54.412;9.502;2024-01-30T05:21:47;102399.94;;;6.44;85.28
78623;BME280;67943;54.412;9.502;2024-01-30T05:26:50;102395.44;;;6.39;85.31
78623;BME280;67943;54.412;9.502;2024-01-30T05:31:52;102398.00;;;6.34;85.12
78623;BME280;67943;54.412;9.502;2024-01-30T05:36:53;102389.31;;;6.37;85.11
78623;BME280;67943;54.412;9.502;2024-01-30T05:41:56;102384.81;;;6.30;85.29
78623;BME280;67943;54.412;9.502;2024-01-30T05:46:58;102381.22;;;6.25;84.97
78623;BME280;67943;54.412;9.502;2024-01-30T05:51:59;102369.00;;;6.24;85.14
78623;BME280;67943;54.412;9.502;2024-01-30T05:57:02;102362.88;;;6.23;85.04
78623;BME280;67943;54.412;9.502;2024-01-30T06:02:04;102367.22;;;6.23;84.78
78623;BME280;67943;54.412;9.502;2024-01-30T06:07:05;102355.88;;;6.22;84.32
78623;BME280;67943;54.412;9.502;2024-01-30T06:12:09;102347.13;;;6.20;84.14
78623;BME280;67943;54.412;9.502;2024-01-30T06:17:12;102351.41;;;6.17;84.30
78623;BME280;67943;54.412;9.502;2024-01-30T06:22:14;102341.91;;;6.20;84.33
78623;BME280;67943;54.412;9.502;2024-01-30T06:27:17;102354.88;;;6.16;83.71
78623;BME280;67943;54.412;9.502;2024-01-30T06:32:18;102355.63;;;6.10;84.58
78623;BME280;67943;54.412;9.502;2024-01-30T06:37:20;102361.66;;;6.07;84.73
78623;BME280;67943;54.412;9.502;2024-01-30T06:42:23;102335.34;;;5.98;85.59
78623;BME280;67943;54.412;9.502;2024-01-30T06:47:24;102342.47;;;6.05;85.03
78623;BME280;67943;54.412;9.502;2024-01-30T06:52:26;102334.56;;;6.02;84.62
78623;BME280;67943;54.412;9.502;2024-01-30T06:57:29;102329.34;;;6.02;85.15
78623;BME280;67943;54.412;9.502;2024-01-30T07:02:30;102315.38;;;6.00;85.38
78623;BME280;67943;54.412;9.502;2024-01-30T07:07:32;102321.56;;;6.05;85.37
78623;BME280;67943;54.412;9.502;2024-01-30T07:12:35;102331.81;;;5.96;85.21
78623;BME280;67943;54.412;9.502;2024-01-30T07:17:36;102311.84;;;5.98;85.70
78623;BME280;67943;54.412;9.502;2024-01-30T07:22:38;102299.69;;;6.00;85.36
78623;BME280;67943;54.412;9.502;2024-01-30T07:27:41;102298.78;;;5.98;85.09
78623;BME280;67943;54.412;9.502;2024-01-30T07:32:42;102281.53;;;6.08;85.14
78623;BME280;67943;54.412;9.502;2024-01-30T07:37:44;102279.94;;;6.15;84.59
78623;BME280;67943;54.412;9.502;2024-01-30T07:42:48;102257.38;;;6.20;84.16
78623;BME280;67943;54.412;9.502;2024-01-30T07:47:49;102269.66;;;6.24;84.67
78623;BME280;67943;54.412;9.502;2024-01-30T07:52:51;102271.50;;;6.28;84.58
78623;BME280;67943;54.412;9.502;2024-01-30T07:57:56;102287.88;;;6.19;85.79
78623;BME280;67943;54.412;9.502;2024-01-30T08:02:59;102307.28;;;6.30;85.29
78623;BME280;67943;54.412;9.502;2024-01-30T08:08:01;102308.34;;;6.41;84.54
78623;BME280;67943;54.412;9.502;2024-01-30T08:13:04;102297.91;;;6.43;85.52
78623;BME280;67943;54.412;9.502;2024-01-30T08:18:05;102283.88;;;6.38;85.17
78623;BME280;67943;54.412;9.502;2024-01-30T08:23:07;102277.19;;;6.52;84.73
78623;BME280;67943;54.412;9.502;2024-01-30T08:28:10;102281.56;;;6.53;84.60
78623;BME280;67943;54.412;9.502;2024-01-30T08:33:12;102289.47;;;6.56;84.31
78623;BME280;67943;54.412;9.502;2024-01-30T08:38:13;102288.75;;;6.66;83.74
78623;BME280;67943;54.412;9.502;2024-01-30T08:43:16;102281.81;;;6.68;83.46
78623;BME280;67943;54.412;9.502;2024-01-30T08:48:18;102272.44;;;6.80;83.36
78623;BME280;67943;54.412;9.502;2024-01-30T08:53:19;102278.50;;;6.77;82.87
78623;BME280;67943;54.412;9.502;2024-01-30T08:58:22;102282.00;;;6.77;84.09
78623;BME280;67943;54.412;9.502;2024-01-30T09:03:24;102285.63;;;6.86;83.25
78623;BME280;67943;54.412;9.502;2024-01-30T09:08:25;102280.53;;;6.92;83.64
78623;BME280;67943;54.412;9.502;2024-01-30T09:13:28;102300.59;;;6.93;83.85
78623;BME280;67943;54.412;9.502;2024-01-30T09:18:29;102303.97;;;6.86;84.98
78623;BME280;67943;54.412;9.502;2024-01-30T09:23:31;102298.94;;;6.99;84.12
78623;BME280;67943;54.412;9.502;2024-01-30T09:28:35;102279.69;;;6.96;84.69
78623;BME280;67943;54.412;9.502;2024-01-30T09:33:36;102288.75;;;7.15;84.29
78623;BME280;67943;54.412;9.502;2024-01-30T09:38:38;102279.25;;;7.23;84.69
78623;BME280;67943;54.412;9.502;2024-01-30T09:43:42;102288.50;;;7.57;83.38
78623;BME280;67943;54.412;9.502;2024-01-30T09:48:49;102279.19;;;7.75;81.79
78623;BME280;67943;54.412;9.502;2024-01-30T09:53:51;102254.03;;;7.90;81.60
78623;BME280;67943;54.412;9.502;2024-01-30T09:58:55;102249.53;;;7.81;81.78
78623;BME280;67943;54.412;9.502;2024-01-30T10:03:57;102240.16;;;7.97;81.68
78623;BME280;67943;54.412;9.502;2024-01-30T10:08:58;102239.22;;;7.93;81.74
78623;BME280;67943;54.412;9.502;2024-01-30T10:14:01;102230.69;;;8.12;81.08
78623;BME280;67943;54.412;9.502;2024-01-30T10:19:03;102226.22;;;8.02;82.14
78623;BME280;67943;54.412;9.502;2024-01-30T10:24:05;102255.22;;;8.16;81.40
78623;BME280;67943;54.412;9.502;2024-01-30T10:29:08;102250.84;;;8.15;82.03
78623;BME280;67943;54.412;9.502;2024-01-30T10:34:10;102253.50;;;8.20;82.02
78623;BME280;67943;54.412;9.502;2024-01-30T10:39:13;102253.47;;;8.17;82.54
78623;BME280;67943;54.412;9.502;2024-01-30T10:44:19;102267.38;;;8.09;83.05
78623;BME280;67943;54.412;9.502;2024-01-30T10:49:24;102251.81;;;8.25;82.69
78623;BME280;67943;54.412;9.502;2024-01-30T10:54:26;102245.72;;;8.26;82.56
78623;BME280;67943;54.412;9.502;2024-01-30T10:59:31;102258.13;;;8.40;82.70
78623;BME280;67943;54.412;9.502;2024-01-30T11:04:36;102280.16;;;8.53;81.98
78623;BME280;67943;54.412;9.502;2024-01-30T11:09:38;102245.88;;;8.39;82.38
78623;BME280;67943;54.412;9.502;2024-01-30T11:14:43;102227.41;;;8.29;83.02
78623;BME280;67943;54.412;9.502;2024-01-30T11:19:46;102257.44;;;8.55;82.42
78623;BME280;67943;54.412;9.502;2024-01-30T11:24:47;102250.53;;;8.65;81.40
78623;BME280;67943;54.412;9.502;2024-01-30T11:29:51;102250.66;;;8.78;81.17
78623;BME280;67943;54.412;9.502;2024-01-30T11:34:52;102242.75;;;8.77;81.23
78623;BME280;67943;54.412;9.502;2024-01-30T11:39:54;102233.06;;;8.65;81.99
78623;BME280;67943;54.412;9.502;2024-01-30T11:44:59;102226.81;;;8.54;82.44
78623;BME280;67943;54.412;9.502;2024-01-30T11:50:01;102218.09;;;8.57;82.70
78623;BME280;67943;54.412;9.502;2024-01-30T11:55:04;102203.31;;;8.69;82.14
78623;BME280;67943;54.412;9.502;2024-01-30T12:00:14;102211.84;;;8.44;82.82
78623;BME280;67943;54.412;9.502;2024-01-30T12:05:16;102190.91;;;8.50;83.00
78623;BME280;67943;54.412;9.502;2024-01-30T12:10:20;102194.53;;;8.61;82.72
78623;BME280;67943;54.412;9.502;2024-01-30T12:15:24;102197.16;;;8.63;82.88
78623;BME280;67943;54.412;9.502;2024-01-30T12:20:26;102207.53;;;8.49;83.69
78623;BME280;67943;54.412;9.502;2024-01-30T12:25:27;102202.34;;;8.55;84.00
78623;BME280;67943;54.412;9.502;2024-01-30T12:30:31;102209.38;;;8.61;83.78
78623;BME280;67943;54.412;9.502;2024-01-30T12:35:32;102191.09;;;8.70;83.53
78623;BME280;67943;54.412;9.502;2024-01-30T12:40:34;102192.00;;;8.76;83.20
78623;BME280;67943;54.412;9.502;2024-01-30T12:45:37;102189.31;;;8.64;83.87
78623;BME280;67943;54.412;9.502;2024-01-30T12:50:38;102196.25;;;8.59;84.29
78623;BME280;67943;54.412;9.502;2024-01-30T12:55:40;102194.56;;;8.67;84.39
78623;BME280;67943;54.412;9.502;2024-01-30T13:00:43;102183.19;;;8.67;85.00
78623;BME280;67943;54.412;9.502;2024-01-30T13:05:45;102191.09;;;8.71;84.90
78623;BME280;67943;54.412;9.502;2024-01-30T13:10:46;102186.69;;;8.69;85.62
78623;BME280;67943;54.412;9.502;2024-01-30T13:15:49;102177.09;;;8.72;85.31
78623;BME280;67943;54.412;9.502;2024-01-30T13:20:51;102178.06;;;8.82;85.60
78623;BME280;67943;54.412;9.502;2024-01-30T13:25:52;102172.00;;;8.88;86.63
78623;BME280;67943;54.412;9.502;2024-01-30T13:30:59;102172.03;;;8.97;87.04
78623;BME280;67943;54.412;9.502;2024-01-30T13:36:01;102161.53;;;8.97;88.05
78623;BME280;67943;54.412;9.502;2024-01-30T13:41:02;102159.84;;;9.05;88.84
78623;BME280;67943;54.412;9.502;2024-01-30T13:46:05;102155.56;;;9.19;89.18
78623;BME280;67943;54.412;9.502;2024-01-30T13:51:07;102161.81;;;9.39;88.71
78623;BME280;67943;54.412;9.502;2024-01-30T13:56:08;102167.09;;;9.45;88.73
78623;BME280;67943;54.412;9.502;2024-01-30T14:01:11;102146.09;;;9.52;88.71
78623;BME280;67943;54.412;9.502;2024-01-30T14:06:13;102149.63;;;9.60;88.23
78623;BME280;67943;54.412;9.502;2024-01-30T14:11:15;102144.41;;;9.69;87.50
78623;BME280;67943;54.412;9.502;2024-01-30T14:16:17;102140.91;;;9.67;88.38
78623;BME280;67943;54.412;9.502;2024-01-30T14:21:20;102150.56;;;9.75;87.77
78623;BME280;67943;54.412;9.502;2024-01-30T14:26:21;102145.31;;;9.78;87.49
78623;BME280;67943;54.412;9.502;2024-01-30T14:31:24;102148.81;;;9.74;88.01
78623;BME280;67943;54.412;9.502;2024-01-30T14:36:26;102146.19;;;9.76;88.13
78623;BME280;67943;54.412;9.502;2024-01-30T14:41:28;102150.53;;;9.69;88.74
78623;BME280;67943;54.412;9.502;2024-01-30T14:46:31;102154.94;;;9.69;89.38
78623;BME280;67943;54.412;9.502;2024-01-30T14:51:32;102158.44;;;9.74;89.29
78623;BME280;67943;54.412;9.502;2024-01-30T14:56:34;102166.38;;;9.81;88.87
78623;BME280;67943;54.412;9.502;2024-01-30T15:01:37;102168.97;;;9.74;89.09
78623;BME280;67943;54.412;9.502;2024-01-30T15:06:38;102163.69;;;9.71;88.49
78623;BME280;67943;54.412;9.502;2024-01-30T15:11:45;102175.88;;;9.55;88.79
78623;BME280;67943;54.412;9.502;2024-01-30T15:16:48;102178.50;;;9.55;88.29
78623;BME280;67943;54.412;9.502;2024-01-30T15:21:49;102184.66;;;9.53;87.08
78623;BME280;67943;54.412;9.502;2024-01-30T15:26:51;102185.44;;;9.36;87.15
78623;BME280;67943;54.412;9.502;2024-01-30T15:31:54;102176.72;;;9.45;86.21
78623;BME280;67943;54.412;9.502;2024-01-30T15:36:58;102184.50;;;9.28;86.27
78623;BME280;67943;54.412;9.502;2024-01-30T15:42:00;102189.72;;;9.19;85.77
78623;BME280;67943;54.412;9.502;2024-01-30T15:47:03;102173.06;;;9.17;85.03
78623;BME280;67943;54.412;9.502;2024-01-30T15:52:05;102175.59;;;9.05;85.42
78623;BME280;67943;54.412;9.502;2024-01-30T15:57:06;102181.69;;;8.95;85.55
78623;BME280;67943;54.412;9.502;2024-01-30T16:02:09;102176.38;;;8.90;85.08
78623;BME280;67943;54.412;9.502;2024-01-30T16:07:11;102185.91;;;8.77;85.56
78623;BME280;67943;54.412;9.502;2024-01-30T16:12:12;102191.22;;;8.87;85.08
78623;BME280;67943;54.412;9.502;2024-01-30T16:17:15;102183.25;;;8.76;85.53
78623;BME280;67943;54.412;9.502;2024-01-30T16:22:17;102174.56;;;8.83;85.25
78623;BME280;67943;54.412;9.502;2024-01-30T16:27:18;102182.44;;;8.82;85.08
78623;BME280;67943;54.412;9.502;2024-01-30T16:32:21;102192.13;;;8.90;85.06
78623;BME280;67943;54.412;9.502;2024-01-30T16:37:22;102198.31;;;9.00;84.41
78623;BME280;67943;54.412;9.502;2024-01-30T16:42:25;102184.06;;;8.67;85.33
78623;BME280;67943;54.412;9.502;2024-01-30T16:47:28;102181.50;;;8.73;84.98
78623;BME280;67943;54.412;9.502;2024-01-30T16:52:30;102189.34;;;8.70;85.20
78623;BME280;67943;54.412;9.502;2024-01-30T16:57:31;102196.38;;;8.74;85.20
78623;BME280;67943;54.412;9.502;2024-01-30T17:02:34;102187.59;;;8.72;86.35
78623;BME280;67943;54.412;9.502;2024-01-30T17:07:36;102186.91;;;8.93;86.09
78623;BME280;67943;54.412;9.502;2024-01-30T17:12:37;102192.88;;;8.75;88.10
78623;BME280;67943;54.412;9.502;2024-01-30T17:17:40;102205.97;;;8.72;89.02
78623;BME280;67943;54.412;9.502;2024-01-30T17:22:42;102212.94;;;8.67;90.45
78623;BME280;67943;54.412;9.502;2024-01-30T17:27:43;102198.09;;;8.72;91.31
78623;BME280;67943;54.412;9.502;2024-01-30T17:32:47;102197.88;;;8.48;95.08
78623;BME280;67943;54.412;9.502;2024-01-30T17:37:48;102209.25;;;8.47;97.05
78623;BME280;67943;54.412;9.502;2024-01-30T17:42:50;102215.28;;;8.40;98.97
78623;BME280;67943;54.412;9.502;2024-01-30T17:47:53;102229.94;;;8.23;100.00
78623;BME280;67943;54.412;9.502;2024-01-30T17:52:54;102229.16;;;8.30;100.00
78623;BME280;67943;54.412;9.502;2024-01-30T17:57:57;102225.59;;;8.25;100.00
78623;BME280;67943;54.412;9.502;2024-01-30T18:03:00;102222.94;;;8.20;100.00
78623;BME280;67943;54.412;9.502;2024-01-30T18:08:04;102227.28;;;8.18;100.00
78623;BME280;67943;54.412;9.502;2024-01-30T18:13:07;102222.97;;;8.23;100.00
78623;BME280;67943;54.412;9.502;2024-01-30T18:18:10;102227.50;;;8.35;100.00
78623;BME280;67943;54.412;9.502;2024-01-30T18:23:13;102212.63;;;8.34;100.00
78623;BME280;67943;54.412;9.502;2024-01-30T18:28:15;102217.91;;;8.38;100.00
78623;BME280;67943;54.412;9.502;2024-01-30T18:33:17;102232.69;;;8.32;100.00
78623;BME280;67943;54.412;9.502;2024-01-30T18:38:19;102229.00;;;8.18;100.00
78623;BME280;67943;54.412;9.502;2024-01-30T18:43:20;102221.22;;;8.24;100.00
78623;BME280;67943;54.412;9.502;2024-01-30T18:48:23;102223.16;;;8.37;100.00
78623;BME280;67943;54.412;9.502;2024-01-30T18:53:25;102216.06;;;8.31;100.00
78623;BME280;67943;54.412;9.502;2024-01-30T18:58:26;102228.25;;;8.28;100.00
78623;BME280;67943;54.412;9.502;2024-01-30T19:03:29;102229.16;;;8.30;100.00
78623;BME280;67943;54.412;9.502;2024-01-30T19:08:31;102240.47;;;8.24;100.00
78623;BME280;67943;54.412;9.502;2024-01-30T19:13:32;102241.09;;;8.03;100.00
78623;BME280;67943;54.412;9.502;2024-01-30T19:18:35;102239.31;;;7.99;100.00
78623;BME280;67943;54.412;9.502;2024-01-30T19:23:36;102242.91;;;8.10;100.00
78623;BME280;67943;54.412;9.502;2024-01-30T19:28:39;102234.09;;;8.01;100.00
78623;BME280;67943;54.412;9.502;2024-01-30T19:33:42;102256.66;;;7.91;100.00
78623;BME280;67943;54.412;9.502;2024-01-30T19:38:43;102253.91;;;7.82;100.00
78623;BME280;67943;54.412;9.502;2024-01-30T19:43:46;102258.31;;;7.83;100.00
78623;BME280;67943;54.412;9.502;2024-01-30T19:48:49;102257.38;;;7.78;100.00
78623;BME280;67943;54.412;9.502;2024-01-30T19:53:50;102256.34;;;7.67;100.00
78623;BME280;67943;54.412;9.502;2024-01-30T19:58:52;102260.72;;;7.68;100.00
78623;BME280;67943;54.412;9.502;2024-01-30T20:03:55;102270.22;;;7.60;100.00
78623;BME280;67943;54.412;9.502;2024-01-30T20:08:57;102264.06;;;7.58;100.00
78623;BME280;67943;54.412;9.502;2024-01-30T20:13:58;102261.19;;;7.39;100.00
78623;BME280;67943;54.412;9.502;2024-01-30T20:19:01;102266.53;;;7.45;100.00
78623;BME280;67943;54.412;9.502;2024-01-30T20:24:03;102268.06;;;7.33;100.00
78623;BME280;67943;54.412;9.502;2024-01-30T20:29:04;102276.75;;;7.30;100.00
78623;BME280;67943;54.412;9.502;2024-01-30T20:34:07;102271.56;;;7.33;100.00
78623;BME280;67943;54.412;9.502;2024-01-30T20:39:09;102285.44;;;7.26;100.00
78623;BME280;67943;54.412;9.502;2024-01-30T20:44:11;102286.06;;;7.10;100.00
78623;BME280;67943;54.412;9.502;2024-01-30T20:49:17;102277.94;;;6.95;100.00
78623;BME280;67943;54.412;9.502;2024-01-30T20:54:18;102294.53;;;6.97;100.00
78623;BME280;67943;54.412;9.502;2024-01-30T20:59:20;102288.41;;;6.95;100.00
78623;BME280;67943;54.412;9.502;2024-01-30T21:04:22;102291.13;;;7.01;100.00
78623;BME280;67943;54.412;9.502;2024-01-30T21:09:24;102305.84;;;6.96;100.00
78623;BME280;67943;54.412;9.502;2024-01-30T21:14:25;102318.19;;;7.03;100.00
78623;BME280;67943;54.412;9.502;2024-01-30T21:19:29;102312.31;;;7.15;100.00
78623;BME280;67943;54.412;9.502;2024-01-30T21:24:31;102310.47;;;7.09;100.00
78623;BME280;67943;54.412;9.502;2024-01-30T21:29:32;102318.94;;;6.96;100.00
78623;BME280;67943;54.412;9.502;2024-01-30T21:34:35;102317.22;;;6.96;100.00
78623;BME280;67943;54.412;9.502;2024-01-30T21:39:37;102320.75;;;7.00;100.00
78623;BME280;67943;54.412;9.502;2024-01-30T21:44:40;102322.34;;;6.90;100.00
78623;BME280;67943;54.412;9.502;2024-01-30T21:49:43;102335.47;;;6.92;100.00
78623;BME280;67943;54.412;9.502;2024-01-30T21:54:45;102340.72;;;6.92;100.00
78623;BME280;67943;54.412;9.502;2024-01-30T21:59:47;102351.22;;;6.96;100.00
78623;BME280;67943;54.412;9.502;2024-01-30T22:04:50;102353.81;;;6.95;100.00
78623;BME280;67943;54.412;9.502;2024-01-30T22:09:51;102368.72;;;6.99;100.00
78623;BME280;67943;54.412;9.502;2024-01-30T22:14:53;102374.94;;;7.04;100.00
78623;BME280;67943;54.412;9.502;2024-01-30T22:19:56;102378.25;;;6.95;100.00
78623;BME280;67943;54.412;9.502;2024-01-30T22:24:57;102392.06;;;6.87;100.00
78623;BME280;67943;54.412;9.502;2024-01-30T22:29:59;102396.25;;;6.78;100.00
78623;BME280;67943;54.412;9.502;2024-01-30T22:35:02;102404.91;;;6.74;100.00
78623;BME280;67943;54.412;9.502;2024-01-30T22:40:05;102415.28;;;6.71;100.00
78623;BME280;67943;54.412;9.502;2024-01-30T22:45:07;102424.13;;;6.76;100.00
78623;BME280;67943;54.412;9.502;2024-01-30T22:50:10;102437.91;;;6.69;100.00
78623;BME280;67943;54.412;9.502;2024-01-30T22:55:11;102458.91;;;6.72;100.00
78623;BME280;67943;54.412;9.502;2024-01-30T23:00:14;102453.56;;;6.66;100.00
78623;BME280;67943;54.412;9.502;2024-01-30T23:05:17;102459.31;;;6.50;100.00
78623;BME280;67943;54.412;9.502;2024-01-30T23:10:18;102479.47;;;6.54;100.00
78623;BME280;67943;54.412;9.502;2024-01-30T23:15:20;102481.19;;;6.54;100.00
78623;BME280;67943;54.412;9.502;2024-01-30T23:20:24;102494.88;;;6.42;100.00
78623;BME280;67943;54.412;9.502;2024-01-30T23:25:25;102507.91;;;6.40;100.00
78623;BME280;67943;54.412;9.502;2024-01-30T23:30:26;102506.69;;;6.25;100.00
78623;BME280;67943;54.412;9.502;2024-01-30T23:35:29;102520.75;;;6.30;100.00
78623;BME280;67943;54.412;9.502;2024-01-30T23:40:31;102526.06;;;6.33;100.00
78623;BME280;67943;54.412;9.502;2024-01-30T23:45:32;102539.78;;;6.24;100.00
78623;BME280;67943;54.412;9.502;2024-01-30T23:50:35;102543.38;;;6.28;100.00
78623;BME280;67943;54.412;9.502;2024-01-30T23:55:37;102557.28;;;6.27;100.00
